Time;durP1;ratioP1;P1;durP2;ratioP2;P2;SDS_P1;SDS_P2;PMS_P1;PMS_P2;Temp;Humidity;BMP_temperature;BMP_pressure;BME280_temperature;BME280_humidity;BME280_pressure;Samples;Min_cycle;Max_cycle;Signal;HPM_P1;HPM_P2
2021/10/04 00:00:57;;;;;;;0.75;0.40;;;15.20;74.80;;;;;;5071572;28;20020;-74
2021/10/04 00:03:22;;;;;;;0.50;0.50;;;15.20;75.00;;;;;;5071347;28;20028;-75
2021/10/04 00:05:48;;;;;;;0.45;0.40;;;15.20;74.80;;;;;;5071059;28;20020;-74
2021/10/04 00:08:14;;;;;;;0.50;0.30;;;15.20;74.60;;;;;;5071327;28;20119;-75
2021/10/04 00:10:39;;;;;;;0.47;0.47;;;15.20;74.40;;;;;;5072362;28;20020;-74
2021/10/04 00:13:06;;;;;;;0.35;0.35;;;15.10;74.40;;;;;;5071575;28;20090;-75
2021/10/04 00:15:31;;;;;;;0.95;0.52;;;15.10;74.60;;;;;;5072124;28;20029;-74
2021/10/04 00:17:58;;;;;;;0.57;0.55;;;15.10;74.70;;;;;;5071548;28;20017;-75
2021/10/04 00:20:26;;;;;;;0.77;0.43;;;15.10;74.90;;;;;;5071533;28;20033;-74
2021/10/04 00:22:53;;;;;;;0.45;0.40;;;15.10;76.00;;;;;;5071754;28;20027;-74
2021/10/04 00:25:19;;;;;;;0.68;0.47;;;15.10;75.50;;;;;;5071544;28;20488;-74
2021/10/04 00:27:45;;;;;;;0.50;0.40;;;15.10;75.80;;;;;;5071687;28;20107;-74
2021/10/04 00:30:11;;;;;;;3.22;0.73;;;15.00;75.60;;;;;;5071154;28;20455;-74
2021/10/04 00:32:42;;;;;;;1.33;0.50;;;15.00;75.60;;;;;;5071815;28;20113;-74
2021/10/04 00:35:10;;;;;;;0.60;0.50;;;15.00;75.80;;;;;;5071552;28;20179;-74
2021/10/04 00:37:36;;;;;;;0.73;0.47;;;15.00;76.30;;;;;;5071471;28;20028;-74
2021/10/04 00:40:02;;;;;;;0.88;0.60;;;15.00;76.60;;;;;;5070951;28;20041;-75
2021/10/04 00:42:28;;;;;;;4.03;1.08;;;15.00;77.10;;;;;;5070824;28;20098;-74
2021/10/04 00:44:53;;;;;;;1.05;0.40;;;15.00;76.90;;;;;;5071017;28;20033;-74
2021/10/04 00:47:19;;;;;;;0.30;0.30;;;14.90;76.20;;;;;;5070958;28;20029;-74
2021/10/04 00:49:45;;;;;;;0.65;0.43;;;14.80;75.80;;;;;;5071368;28;20025;-74
2021/10/04 00:52:11;;;;;;;0.43;0.40;;;14.90;75.00;;;;;;5071214;28;20016;-75
2021/10/04 00:54:38;;;;;;;0.40;0.40;;;14.90;74.20;;;;;;5070977;28;20111;-74
2021/10/04 00:57:04;;;;;;;0.68;0.40;;;14.80;73.70;;;;;;5071344;28;20028;-74
2021/10/04 00:59:31;;;;;;;0.45;0.40;;;14.80;74.00;;;;;;5073128;28;20029;-74
2021/10/04 01:01:56;;;;;;;0.63;0.35;;;14.70;73.70;;;;;;5075087;28;20025;-75
2021/10/04 01:04:26;;;;;;;0.93;0.45;;;14.70;73.90;;;;;;5074610;28;20024;-75
2021/10/04 01:06:56;;;;;;;0.43;0.35;;;14.70;73.70;;;;;;5074841;28;20482;-74
2021/10/04 01:09:23;;;;;;;0.40;0.40;;;14.60;74.20;;;;;;5074453;28;20021;-74
2021/10/04 01:11:48;;;;;;;0.80;0.60;;;14.60;74.50;;;;;;5074809;28;20029;-74
2021/10/04 01:14:14;;;;;;;0.88;0.70;;;14.60;75.10;;;;;;5074859;28;20032;-74
2021/10/04 01:16:40;;;;;;;1.02;0.70;;;14.50;77.60;;;;;;5074799;28;20108;-74
2021/10/04 01:19:05;;;;;;;0.68;0.68;;;14.40;78.20;;;;;;5074317;28;20067;-74
2021/10/04 01:21:31;;;;;;;1.90;1.10;;;14.40;78.40;;;;;;5075210;28;20055;-74
2021/10/04 01:23:57;;;;;;;2.00;1.10;;;14.40;78.10;;;;;;5077668;28;20070;-74
2021/10/04 01:26:24;;;;;;;1.20;0.80;;;14.50;78.00;;;;;;5074515;28;20451;-74
2021/10/04 01:28:50;;;;;;;0.73;0.60;;;14.50;77.90;;;;;;5074571;28;20024;-73
2021/10/04 01:31:21;;;;;;;0.75;0.70;;;14.50;78.60;;;;;;5074329;28;20044;-74
2021/10/04 01:33:47;;;;;;;1.08;0.85;;;14.50;78.10;;;;;;5074578;28;20069;-74
2021/10/04 01:36:12;;;;;;;1.42;0.70;;;14.50;77.80;;;;;;5074367;28;20101;-73
2021/10/04 01:38:38;;;;;;;0.82;0.80;;;14.60;77.80;;;;;;5074252;28;20035;-74
2021/10/04 01:41:04;;;;;;;0.65;0.55;;;14.60;77.70;;;;;;5074312;28;20040;-74
2021/10/04 01:43:29;;;;;;;3.15;0.50;;;14.50;77.40;;;;;;5074291;28;20027;-74
2021/10/04 01:45:55;;;;;;;0.65;0.40;;;14.20;77.00;;;;;;5074349;28;20476;-73
2021/10/04 01:48:21;;;;;;;1.08;0.30;;;14.10;76.90;;;;;;5074174;28;20481;-74
2021/10/04 01:50:46;;;;;;;2.25;0.40;;;13.90;78.00;;;;;;5074219;28;20024;-74
2021/10/04 01:53:12;;;;;;;0.50;0.40;;;13.90;78.70;;;;;;5073699;28;20020;-74
2021/10/04 01:55:38;;;;;;;0.30;0.30;;;13.80;79.40;;;;;;5074082;28;20108;-75
2021/10/04 01:58:04;;;;;;;2.10;0.52;;;13.90;80.20;;;;;;5073895;28;20024;-75
2021/10/04 02:00:29;;;;;;;1.02;0.30;;;13.80;80.10;;;;;;5074923;28;20115;-74
2021/10/04 02:02:55;;;;;;;1.02;0.40;;;13.70;79.50;;;;;;5073664;28;20056;-74
2021/10/04 02:05:23;;;;;;;1.65;0.50;;;13.60;80.90;;;;;;5075014;28;20472;-74
2021/10/04 02:07:50;;;;;;;2.92;0.40;;;13.70;81.20;;;;;;5074918;28;20027;-74
2021/10/04 02:10:20;;;;;;;0.95;0.47;;;13.60;81.40;;;;;;5073000;28;20094;-74
2021/10/04 02:12:46;;;;;;;0.70;0.50;;;13.50;82.10;;;;;;5073269;28;20078;-74
2021/10/04 02:15:12;;;;;;;1.17;0.40;;;13.40;82.80;;;;;;5073492;28;20031;-75
2021/10/04 02:17:38;;;;;;;0.40;0.40;;;13.20;82.90;;;;;;5073539;28;20036;-73
2021/10/04 02:20:06;;;;;;;1.10;0.50;;;13.00;82.20;;;;;;5073033;28;20032;-73
2021/10/04 02:22:32;;;;;;;1.15;0.45;;;12.90;82.80;;;;;;5073473;28;20046;-74
2021/10/04 02:24:57;;;;;;;3.30;0.55;;;12.80;82.80;;;;;;5073464;28;20447;-74
2021/10/04 02:27:23;;;;;;;1.10;0.28;;;12.70;83.70;;;;;;5072871;28;20021;-74
2021/10/04 02:29:49;;;;;;;0.80;0.40;;;12.70;83.60;;;;;;5072973;28;20044;-74
2021/10/04 02:32:14;;;;;;;0.30;0.30;;;12.60;84.30;;;;;;5072868;28;20044;-74
2021/10/04 02:34:40;;;;;;;2.70;0.47;;;12.60;84.50;;;;;;5072870;28;20385;-74
2021/10/04 02:37:06;;;;;;;0.55;0.40;;;12.60;84.30;;;;;;5074308;28;20024;-74
2021/10/04 02:39:31;;;;;;;1.58;0.50;;;12.60;84.70;;;;;;5072627;28;20036;-74
2021/10/04 02:41:57;;;;;;;0.40;0.40;;;12.60;84.80;;;;;;5073122;28;20496;-74
2021/10/04 02:44:23;;;;;;;3.67;0.43;;;12.60;84.50;;;;;;5072848;28;20025;-74
2021/10/04 02:46:48;;;;;;;0.52;0.50;;;12.60;84.70;;;;;;5056258;28;20029;-74
2021/10/04 02:49:14;;;;;;;1.42;0.52;;;12.50;85.60;;;;;;5072836;28;20028;-74
2021/10/04 02:51:39;;;;;;;0.43;0.35;;;12.50;85.80;;;;;;5072505;28;20020;-74
2021/10/04 02:54:05;;;;;;;1.23;0.70;;;12.50;85.90;;;;;;5074348;28;20054;-74
2021/10/04 02:56:31;;;;;;;1.08;0.63;;;12.70;86.10;;;;;;5072644;28;20028;-74
2021/10/04 02:58:56;;;;;;;4.78;0.68;;;12.80;86.10;;;;;;5072650;28;20029;-76
2021/10/04 03:01:22;;;;;;;1.00;0.60;;;12.60;86.20;;;;;;5073632;28;20032;-74
2021/10/04 03:03:48;;;;;;;0.80;0.50;;;12.60;86.60;;;;;;5072320;28;20048;-74
2021/10/04 03:06:13;;;;;;;2.00;0.40;;;12.60;86.50;;;;;;5072257;28;20127;-75
2021/10/04 03:08:39;;;;;;;0.73;0.50;;;12.50;87.60;;;;;;5073479;28;20377;-74
2021/10/04 03:11:06;;;;;;;2.30;0.50;;;12.40;87.20;;;;;;5072162;28;20025;-74
2021/10/04 03:13:32;;;;;;;0.40;0.30;;;12.50;87.70;;;;;;5072104;28;20032;-74
2021/10/04 03:15:57;;;;;;;1.65;0.30;;;12.50;87.60;;;;;;5072529;28;20111;-75
2021/10/04 03:18:23;;;;;;;1.23;0.35;;;12.60;87.20;;;;;;5073306;28;20500;-74
2021/10/04 03:20:49;;;;;;;2.28;0.38;;;12.50;87.80;;;;;;5072237;28;20074;-74
2021/10/04 03:23:14;;;;;;;0.55;0.47;;;12.50;87.40;;;;;;5071378;28;20029;-74
2021/10/04 03:25:40;;;;;;;1.48;0.70;;;12.50;86.90;;;;;;5073711;28;20029;-74
2021/10/04 03:28:07;;;;;;;3.40;0.50;;;12.60;86.70;;;;;;5073231;28;20028;-76
2021/10/04 03:30:33;;;;;;;3.00;0.68;;;12.50;87.20;;;;;;5071938;28;20041;-73
2021/10/04 03:33:00;;;;;;;1.05;0.73;;;12.60;87.30;;;;;;5072111;28;20032;-73
2021/10/04 03:35:26;;;;;;;1.50;0.65;;;12.60;86.50;;;;;;5071894;28;20023;-73
2021/10/04 03:37:52;;;;;;;3.13;0.73;;;12.60;86.70;;;;;;5072091;28;20028;-74
2021/10/04 03:40:18;;;;;;;0.63;0.60;;;12.50;87.40;;;;;;5071531;28;20396;-74
2021/10/04 03:42:45;;;;;;;1.10;0.60;;;12.60;86.90;;;;;;5073047;28;20082;-74
2021/10/04 03:45:11;;;;;;;1.90;0.43;;;12.70;87.00;;;;;;5071827;28;20029;-73
2021/10/04 03:47:37;;;;;;;0.60;0.45;;;12.70;86.70;;;;;;5071522;28;20115;-74
2021/10/04 03:50:08;;;;;;;1.52;0.30;;;12.80;86.00;;;;;;5072861;28;20075;-74
2021/10/04 03:52:34;;;;;;;1.65;0.43;;;12.80;85.40;;;;;;5071538;28;20053;-74
2021/10/04 03:55:00;;;;;;;1.45;1.08;;;12.80;85.10;;;;;;5071708;28;20029;-75
2021/10/04 03:57:26;;;;;;;2.55;1.65;;;12.80;85.30;;;;;;5072556;28;20020;-73
2021/10/04 03:59:51;;;;;;;2.58;1.85;;;12.80;85.50;;;;;;5071695;28;20035;-73
2021/10/04 04:02:17;;;;;;;3.60;1.92;;;12.80;85.20;;;;;;5071756;28;20507;-73
2021/10/04 04:04:42;;;;;;;2.85;1.70;;;12.90;85.40;;;;;;5072669;28;20103;-74
2021/10/04 04:07:08;;;;;;;1.67;1.00;;;12.90;85.70;;;;;;5071321;28;20477;-74
2021/10/04 04:09:33;;;;;;;1.83;1.10;;;12.70;86.40;;;;;;5071677;28;20575;-74
2021/10/04 04:11:59;;;;;;;1.15;0.85;;;12.70;86.30;;;;;;5071648;28;20024;-74
2021/10/04 04:14:25;;;;;;;0.93;0.65;;;12.80;85.80;;;;;;5071010;28;20021;-74
2021/10/04 04:16:50;;;;;;;4.35;0.63;;;12.70;85.10;;;;;;5071727;28;20035;-74
2021/10/04 04:19:16;;;;;;;0.65;0.50;;;12.70;85.20;;;;;;5071227;28;20421;-74
2021/10/04 04:21:42;;;;;;;0.50;0.43;;;12.70;85.50;;;;;;5071541;28;20477;-74
2021/10/04 04:24:11;;;;;;;0.63;0.57;;;12.80;85.40;;;;;;5071459;28;20029;-74
2021/10/04 04:26:38;;;;;;;0.68;0.50;;;12.80;85.40;;;;;;5071186;28;20028;-75
2021/10/04 04:29:03;;;;;;;0.73;0.60;;;12.90;85.30;;;;;;5071585;28;20077;-75
2021/10/04 04:31:29;;;;;;;0.73;0.60;;;13.00;85.10;;;;;;5071342;28;20119;-74
2021/10/04 04:33:55;;;;;;;0.75;0.70;;;13.00;84.70;;;;;;5072569;28;20024;-74
2021/10/04 04:36:20;;;;;;;0.75;0.50;;;13.10;84.40;;;;;;5075089;28;20115;-75
2021/10/04 04:38:46;;;;;;;0.30;0.30;;;13.00;84.20;;;;;;5074860;28;20025;-74
2021/10/04 04:41:12;;;;;;;0.40;0.40;;;13.00;84.20;;;;;;5076195;28;20033;-74
2021/10/04 04:43:38;;;;;;;0.55;0.50;;;13.00;84.20;;;;;;5075251;28;20481;-74
2021/10/04 04:46:04;;;;;;;2.70;0.77;;;13.00;84.20;;;;;;5074978;28;20078;-74
2021/10/04 04:48:30;;;;;;;1.35;0.60;;;13.00;84.10;;;;;;5074969;28;20032;-75
2021/10/04 04:50:55;;;;;;;0.80;0.57;;;12.90;84.40;;;;;;5075006;28;20025;-75
2021/10/04 04:53:21;;;;;;;2.63;0.75;;;12.90;84.20;;;;;;5074549;28;20035;-75
2021/10/04 04:55:46;;;;;;;0.75;0.45;;;12.90;84.60;;;;;;5075071;28;20031;-74
2021/10/04 04:58:12;;;;;;;2.15;0.75;;;12.80;84.50;;;;;;5074940;28;20024;-74
2021/10/04 05:00:37;;;;;;;0.63;0.63;;;12.90;84.60;;;;;;5074587;28;20577;-74
2021/10/04 05:03:06;;;;;;;0.65;0.50;;;12.90;84.90;;;;;;5058271;28;20024;-75
2021/10/04 05:05:31;;;;;;;1.58;0.63;;;12.90;84.90;;;;;;5074523;28;20032;-74
2021/10/04 05:07:57;;;;;;;1.30;0.90;;;12.80;85.50;;;;;;5074866;28;20388;-74
2021/10/04 05:10:23;;;;;;;0.98;0.70;;;12.80;85.40;;;;;;5074608;28;20497;-74
2021/10/04 05:12:48;;;;;;;1.77;0.85;;;12.70;85.70;;;;;;5074408;28;20491;-74
2021/10/04 05:15:14;;;;;;;0.95;0.70;;;12.60;86.20;;;;;;5074001;28;20115;-73
2021/10/04 05:17:40;;;;;;;1.55;1.15;;;12.70;86.20;;;;;;5074281;28;20109;-74
2021/10/04 05:20:06;;;;;;;1.83;1.08;;;12.70;86.40;;;;;;5074331;28;20033;-75
2021/10/04 05:22:35;;;;;;;1.83;0.93;;;12.70;85.90;;;;;;5074068;28;20029;-74
2021/10/04 05:25:02;;;;;;;0.85;0.70;;;12.80;85.90;;;;;;5073767;28;20109;-74
2021/10/04 05:27:27;;;;;;;2.17;1.38;;;12.70;85.50;;;;;;5073728;28;20029;-74
2021/10/04 05:29:53;;;;;;;1.38;0.52;;;12.80;85.20;;;;;;5073366;28;20186;-74
2021/10/04 05:32:18;;;;;;;2.25;0.82;;;12.80;85.40;;;;;;5074742;28;20021;-75
2021/10/04 05:34:44;;;;;;;2.28;1.27;;;12.80;85.90;;;;;;5073288;28;20028;-73
2021/10/04 05:37:09;;;;;;;1.23;0.60;;;12.60;86.50;;;;;;5073712;28;20016;-74
2021/10/04 05:39:35;;;;;;;0.85;0.70;;;12.60;85.80;;;;;;5073730;28;20094;-74
2021/10/04 05:42:00;;;;;;;0.85;0.65;;;12.50;86.20;;;;;;5073418;28;20021;-74
2021/10/04 05:44:26;;;;;;;0.40;0.40;;;12.30;87.00;;;;;;5073983;28;20572;-74
2021/10/04 05:46:52;;;;;;;1.02;0.73;;;12.20;88.30;;;;;;5073854;28;20024;-73
2021/10/04 05:49:17;;;;;;;1.00;0.52;;;12.10;88.10;;;;;;5078845;28;20028;-74
2021/10/04 05:51:43;;;;;;;2.80;1.73;;;12.20;88.20;;;;;;5081613;28;20024;-74
2021/10/04 05:54:09;;;;;;;1.42;0.90;;;12.20;88.40;;;;;;5080162;28;20024;-75
2021/10/04 05:56:35;;;;;;;1.77;0.73;;;12.30;88.20;;;;;;5076301;28;20035;-75
2021/10/04 05:59:00;;;;;;;1.23;0.70;;;12.20;87.60;;;;;;5076221;28;20081;-74
2021/10/04 06:01:26;;;;;;;2.65;0.75;;;12.30;87.60;;;;;;5074264;28;20085;-74
2021/10/04 06:03:52;;;;;;;2.30;0.70;;;12.40;87.60;;;;;;5075099;28;20025;-73
2021/10/04 06:06:17;;;;;;;0.52;0.50;;;12.50;87.70;;;;;;5073875;28;20029;-74
2021/10/04 06:08:47;;;;;;;6.10;1.60;;;12.50;87.40;;;;;;5074516;28;20023;-75
2021/10/04 06:11:12;;;;;;;1.30;1.20;;;12.50;87.20;;;;;;5074585;28;20090;-73
2021/10/04 06:13:38;;;;;;;1.35;0.82;;;12.50;87.10;;;;;;5073907;28;20465;-73
2021/10/04 06:16:04;;;;;;;3.72;1.15;;;12.50;87.10;;;;;;5074249;28;20047;-76
2021/10/04 06:18:30;;;;;;;1.67;0.90;;;12.50;87.00;;;;;;5073814;28;20055;-73
2021/10/04 06:20:56;;;;;;;1.33;0.88;;;12.50;87.00;;;;;;5073528;28;20496;-74
2021/10/04 06:23:21;;;;;;;1.27;1.00;;;12.60;87.00;;;;;;5074800;28;20016;-76
2021/10/04 06:25:47;;;;;;;1.70;0.98;;;12.70;86.90;;;;;;5073566;28;20075;-73
2021/10/04 06:28:13;;;;;;;1.48;0.88;;;12.80;86.50;;;;;;5073384;28;20017;-74
2021/10/04 06:30:39;;;;;;;1.05;0.60;;;12.90;85.80;;;;;;5074735;28;20044;-74
2021/10/04 06:33:05;;;;;;;5.10;0.70;;;12.80;85.40;;;;;;5073407;28;20417;-74
2021/10/04 06:35:31;;;;;;;1.83;1.00;;;12.80;85.30;;;;;;5073041;28;20652;-73
2021/10/04 06:37:56;;;;;;;2.20;0.80;;;12.80;85.60;;;;;;5072836;28;20028;-74
2021/10/04 06:40:22;;;;;;;2.25;1.42;;;12.70;86.00;;;;;;5073378;28;20082;-74
2021/10/04 06:42:48;;;;;;;2.40;0.95;;;12.80;85.70;;;;;;5073350;28;20427;-74
2021/10/04 06:45:14;;;;;;;1.75;1.02;;;12.80;85.70;;;;;;5072913;28;20032;-74
2021/10/04 06:47:40;;;;;;;3.45;1.00;;;12.90;85.10;;;;;;5073114;28;20017;-74
2021/10/04 06:50:06;;;;;;;3.92;1.35;;;12.90;84.50;;;;;;5073602;28;20111;-74
2021/10/04 06:52:32;;;;;;;1.38;0.85;;;12.90;84.70;;;;;;5073000;28;20165;-74
2021/10/04 06:54:59;;;;;;;1.45;0.98;;;13.00;84.80;;;;;;5073064;28;20490;-74
2021/10/04 06:57:24;;;;;;;1.52;0.98;;;13.00;84.30;;;;;;5073335;28;20029;-74
2021/10/04 06:59:51;;;;;;;1.02;0.90;;;13.00;84.20;;;;;;5073318;28;20570;-75
2021/10/04 07:02:17;;;;;;;4.10;1.08;;;13.10;83.90;;;;;;5072922;28;20059;-74
2021/10/04 07:04:42;;;;;;;1.35;0.85;;;13.10;84.20;;;;;;5074160;28;20020;-75
2021/10/04 07:07:09;;;;;;;2.85;1.10;;;13.00;84.00;;;;;;5073453;28;20020;-75
2021/10/04 07:09:35;;;;;;;1.65;0.70;;;13.00;83.50;;;;;;5072973;28;20536;-74
2021/10/04 07:12:01;;;;;;;0.90;0.60;;;13.00;83.80;;;;;;5073600;28;20116;-74
2021/10/04 07:14:27;;;;;;;1.50;0.90;;;13.00;83.80;;;;;;5073564;28;20049;-76
2021/10/04 07:16:52;;;;;;;2.53;1.10;;;13.00;83.30;;;;;;5072359;28;20078;-76
2021/10/04 07:19:18;;;;;;;1.52;1.08;;;12.90;83.50;;;;;;5071894;28;20500;-75
2021/10/04 07:21:45;;;;;;;1.60;0.93;;;12.90;83.30;;;;;;5072034;28;20302;-74
2021/10/04 07:24:11;;;;;;;2.35;0.90;;;12.90;83.60;;;;;;5072264;28;20029;-75
2021/10/04 07:26:37;;;;;;;1.98;1.00;;;12.80;84.60;;;;;;5072042;28;20035;-75
2021/10/04 07:29:04;;;;;;;3.00;1.23;;;12.80;85.10;;;;;;5071859;28;20020;-75
2021/10/04 07:31:30;;;;;;;3.38;1.02;;;12.90;85.20;;;;;;5073164;28;20048;-74
2021/10/04 07:33:55;;;;;;;1.67;1.20;;;13.00;84.30;;;;;;5072683;28;20029;-75
2021/10/04 07:36:21;;;;;;;1.25;0.93;;;13.00;84.50;;;;;;5073140;28;20032;-74
2021/10/04 07:38:47;;;;;;;2.00;0.77;;;13.00;84.80;;;;;;5071682;28;20016;-74
2021/10/04 07:41:12;;;;;;;1.38;0.65;;;12.80;84.70;;;;;;5071441;28;20037;-75
2021/10/04 07:43:38;;;;;;;0.93;0.60;;;12.70;85.70;;;;;;5071314;28;20044;-74
2021/10/04 07:46:07;;;;;;;3.03;0.80;;;12.60;84.20;;;;;;5071433;28;20160;-75
2021/10/04 07:48:33;;;;;;;1.25;0.47;;;12.70;84.70;;;;;;5071203;28;20020;-73
2021/10/04 07:50:58;;;;;;;0.98;0.57;;;12.70;84.70;;;;;;5071729;28;20111;-74
2021/10/04 07:53:24;;;;;;;1.05;0.60;;;12.80;84.70;;;;;;5071669;28;20031;-73
2021/10/04 07:55:50;;;;;;;2.45;0.98;;;12.80;84.70;;;;;;5071304;28;20349;-74
2021/10/04 07:58:15;;;;;;;0.88;0.73;;;12.80;84.40;;;;;;5071646;28;20538;-76
2021/10/04 08:00:41;;;;;;;14.50;1.48;;;12.80;84.40;;;;;;5054848;28;20041;-78
2021/10/04 08:03:07;;;;;;;3.05;1.10;;;12.90;86.90;;;;;;5071315;28;20028;-79
2021/10/04 08:05:33;;;;;;;6.65;0.70;;;13.00;87.50;;;;;;5071513;28;20162;-80
2021/10/04 08:08:00;;;;;;;3.00;0.60;;;13.20;88.10;;;;;;5072660;28;20427;-78
2021/10/04 08:10:26;;;;;;;1.75;0.60;;;13.40;85.50;;;;;;5070938;28;20024;-77
2021/10/04 08:12:52;;;;;;;1.52;0.70;;;13.50;84.30;;;;;;5071058;28;20507;-79
2021/10/04 08:15:20;;;;;;;1.73;0.70;;;13.70;83.60;;;;;;5071291;28;20024;-79
2021/10/04 08:17:48;;;;;;;2.83;0.88;;;13.80;83.20;;;;;;5070818;28;20075;-79
2021/10/04 08:20:17;;;;;;;2.22;0.50;;;14.00;81.80;;;;;;5054836;28;20037;-78
2021/10/04 08:22:42;;;;;;;0.40;0.40;;;14.10;79.50;;;;;;5070630;28;20086;-78
2021/10/04 08:25:10;;;;;;;0.50;0.40;;;14.10;79.20;;;;;;5071299;28;20431;-79
2021/10/04 08:27:36;;;;;;;1.77;0.40;;;13.90;80.10;;;;;;5071122;28;20024;-78
2021/10/04 08:30:04;;;;;;;0.88;0.40;;;13.90;79.40;;;;;;5072391;28;20505;-78
2021/10/04 08:32:30;;;;;;;1.10;0.70;;;13.90;79.40;;;;;;5073027;28;20032;-78
2021/10/04 08:34:57;;;;;;;2.03;0.65;;;13.90;79.60;;;;;;5071031;28;20108;-78
2021/10/04 08:37:24;;;;;;;3.70;0.77;;;14.00;79.80;;;;;;5072640;28;20047;-77
2021/10/04 08:39:52;;;;;;;1.40;0.68;;;14.00;79.90;;;;;;5070431;28;20428;-78
2021/10/04 08:42:21;;;;;;;1.77;0.80;;;14.10;79.80;;;;;;5072259;28;20118;-77
2021/10/04 08:44:48;;;;;;;1.85;0.73;;;14.10;79.10;;;;;;5072084;28;20025;-78
2021/10/04 08:47:13;;;;;;;2.20;0.55;;;14.20;79.10;;;;;;5054033;28;20052;-74
2021/10/04 08:49:39;;;;;;;0.77;0.55;;;14.10;78.30;;;;;;5070674;28;20067;-73
2021/10/04 08:52:05;;;;;;;2.05;1.00;;;14.00;78.40;;;;;;5070912;28;20028;-74
2021/10/04 08:54:30;;;;;;;3.05;0.85;;;13.70;79.20;;;;;;5072207;28;20024;-73
2021/10/04 08:56:57;;;;;;;0.57;0.43;;;13.60;79.80;;;;;;5070645;28;20484;-74
2021/10/04 08:59:23;;;;;;;1.45;0.50;;;13.50;80.00;;;;;;5070866;28;20059;-74
2021/10/04 09:01:48;;;;;;;1.05;0.47;;;13.30;81.10;;;;;;5070789;28;20465;-73
2021/10/04 09:04:19;;;;;;;1.65;1.10;;;13.30;81.90;;;;;;5070106;28;20106;-73
2021/10/04 09:06:45;;;;;;;2.13;0.70;;;13.30;81.50;;;;;;5070648;28;20027;-73
2021/10/04 09:09:13;;;;;;;0.93;0.60;;;13.10;82.40;;;;;;5070709;28;20473;-73
2021/10/04 09:11:48;;;;;;;1.23;0.57;;;12.90;84.30;;;;;;5070501;28;20021;-73
2021/10/04 09:14:30;;;;;;;2.70;0.60;;;12.70;84.40;;;;;;5070643;28;20074;-74
2021/10/04 09:17:11;;;;;;;0.75;0.60;;;12.40;85.10;;;;;;5070498;28;20029;-73
2021/10/04 09:19:39;;;;;;;0.98;0.70;;;12.20;86.30;;;;;;5072548;28;20109;-73
2021/10/04 09:22:21;;;;;;;0.95;0.63;;;12.30;86.60;;;;;;5075254;28;20033;-73
2021/10/04 09:24:56;;;;;;;0.95;0.30;;;12.40;86.20;;;;;;5074890;28;20027;-74
2021/10/04 09:27:24;;;;;;;1.10;0.50;;;12.40;86.80;;;;;;5074898;28;20427;-74
2021/10/04 09:29:50;;;;;;;1.73;0.68;;;12.50;87.00;;;;;;5074073;28;20057;-74
2021/10/04 09:32:33;;;;;;;0.95;0.50;;;12.40;85.50;;;;;;5074401;28;20055;-73
2021/10/04 09:35:12;;;;;;;3.13;0.57;;;12.40;85.00;;;;;;5074401;28;20117;-73
2021/10/04 09:37:39;;;;;;;0.47;0.40;;;12.60;84.80;;;;;;5074165;28;20499;-74
2021/10/04 09:40:23;;;;;;;0.30;0.30;;;12.60;85.20;;;;;;5073853;28;20041;-73
2021/10/04 09:42:48;;;;;;;0.40;0.30;;;12.60;84.40;;;;;;5074503;28;20052;-74
2021/10/04 09:45:14;;;;;;;1.65;0.40;;;12.70;83.50;;;;;;5073750;28;20056;-74
2021/10/04 09:47:40;;;;;;;2.30;0.75;;;12.80;83.30;;;;;;5075372;28;20095;-74
2021/10/04 09:50:28;;;;;;;0.40;0.32;;;12.80;83.20;;;;;;5073860;28;20077;-74
2021/10/04 09:52:55;;;;;;;0.52;0.38;;;12.80;83.20;;;;;;5073895;28;20039;-74
2021/10/04 09:55:28;;;;;;;0.40;0.38;;;12.70;83.40;;;;;;5073736;28;20028;-74
2021/10/04 09:58:05;;;;;;;1.15;0.38;;;12.60;83.80;;;;;;5073453;28;20366;-74
2021/10/04 10:00:40;;;;;;;1.95;0.40;;;12.60;84.00;;;;;;5073354;28;20064;-74
2021/10/04 10:03:07;;;;;;;1.35;0.60;;;12.70;83.90;;;;;;5073562;28;20031;-73
2021/10/04 10:05:36;;;;;;;1.40;0.47;;;12.60;84.60;;;;;;5072894;28;20037;-75
2021/10/04 10:08:03;;;;;;;0.85;0.30;;;12.80;84.80;;;;;;5073197;28;20557;-75
2021/10/04 10:10:29;;;;;;;0.98;0.60;;;12.80;83.30;;;;;;5073042;28;20120;-74
2021/10/04 10:12:55;;;;;;;0.60;0.40;;;12.70;83.50;;;;;;5073166;28;20060;-74
2021/10/04 10:15:27;;;;;;;0.40;0.30;;;12.80;83.50;;;;;;5072903;28;20124;-74
2021/10/04 10:18:17;;;;;;;0.22;0.22;;;12.90;82.80;;;;;;5072988;28;20070;-74
2021/10/04 10:20:44;;;;;;;1.23;0.80;;;13.20;81.90;;;;;;5072202;28;20102;-74
2021/10/04 10:23:10;;;;;;;0.45;0.30;;;13.40;80.90;;;;;;5072983;28;20025;-74
2021/10/04 10:25:41;;;;;;;0.30;0.20;;;13.50;80.90;;;;;;5084675;28;20067;-74
2021/10/04 10:28:33;;;;;;;0.68;0.38;;;13.40;78.10;;;;;;5083371;28;20069;-73
2021/10/04 10:31:01;;;;;;;1.27;0.47;;;13.50;78.60;;;;;;5078283;28;20044;-73
2021/10/04 10:33:46;;;;;;;1.77;0.50;;;13.50;78.50;;;;;;5072369;28;20109;-73
2021/10/04 10:36:13;;;;;;;0.95;0.65;;;13.50;80.50;;;;;;5072544;28;20056;-73
2021/10/04 10:39:04;;;;;;;0.95;0.35;;;13.50;79.90;;;;;;5072727;28;20111;-72
2021/10/04 10:41:30;;;;;;;0.90;0.30;;;13.60;78.30;;;;;;5072260;28;20028;-73
2021/10/04 10:44:13;;;;;;;0.52;0.45;;;13.60;78.30;;;;;;5072608;28;20116;-79
2021/10/04 10:47:08;;;;;;;0.28;0.25;;;13.80;78.10;;;;;;5072039;28;20032;-78
2021/10/04 10:50:12;;;;;;;0.80;0.43;;;13.90;77.70;;;;;;5062687;28;20041;-81
2021/10/04 10:53:03;;;;;;;1.55;0.50;;;14.10;77.80;;;;;;5072768;28;20414;-77
2021/10/04 10:55:35;;;;;;;3.20;0.50;;;14.10;76.70;;;;;;5073265;28;20025;-79
2021/10/04 10:58:28;;;;;;;0.43;0.40;;;14.20;76.60;;;;;;5076991;28;20031;-79
2021/10/04 11:01:16;;;;;;;0.70;0.40;;;14.20;76.50;;;;;;5070772;28;20029;-87
2021/10/04 11:03:54;;;;;;;0.30;0.30;;;14.40;77.60;;;;;;5067644;28;20031;-78
2021/10/04 11:06:38;;;;;;;0.52;0.30;;;14.60;76.20;;;;;;5054702;28;20044;-79
2021/10/04 11:09:04;;;;;;;1.02;0.32;;;14.70;75.60;;;;;;5073466;28;20093;-78
2021/10/04 11:11:31;;;;;;;0.47;0.30;;;14.70;74.70;;;;;;5071160;28;20025;-79
2021/10/04 11:14:04;;;;;;;0.60;0.40;;;14.80;75.20;;;;;;5073094;28;20100;-81
2021/10/04 11:16:34;;;;;;;0.28;0.28;;;14.80;74.20;;;;;;5071823;28;20052;-79
2021/10/04 11:19:00;;;;;;;0.65;0.50;;;14.90;73.80;;;;;;5071402;28;20657;-80
2021/10/04 11:21:30;;;;;;;0.77;0.50;;;15.10;74.10;;;;;;5071403;28;20024;-78
2021/10/04 11:24:01;;;;;;;0.57;0.45;;;15.10;74.10;;;;;;5071298;28;20027;-81
2021/10/04 11:26:28;;;;;;;2.00;0.82;;;15.10;73.80;;;;;;5054886;28;20032;-77
2021/10/04 11:28:57;;;;;;;1.25;0.52;;;15.00;73.80;;;;;;5071215;28;20508;-77
2021/10/04 11:31:26;;;;;;;0.63;0.50;;;14.90;74.60;;;;;;5072453;28;20123;-77
2021/10/04 11:34:09;;;;;;;0.50;0.40;;;14.80;75.00;;;;;;5071254;28;20032;-77
2021/10/04 11:36:44;;;;;;;2.25;0.55;;;14.60;75.10;;;;;;5072416;28;20029;-79
2021/10/04 11:39:17;;;;;;;1.70;0.53;;;14.50;75.70;;;;;;5077729;28;20036;-78
2021/10/04 11:42:05;;;;;;;0.43;0.35;;;14.50;75.50;;;;;;5077557;28;20279;-78
2021/10/04 11:44:44;;;;;;;0.40;0.30;;;14.40;76.10;;;;;;5056598;28;20021;-78
2021/10/04 11:47:12;;;;;;;2.05;0.70;;;14.50;75.90;;;;;;5064915;28;20032;-78
2021/10/04 11:49:40;;;;;;;1.75;0.73;;;14.60;76.50;;;;;;5072720;28;20035;-78
2021/10/04 11:52:17;;;;;;;0.65;0.40;;;14.60;75.20;;;;;;5072306;28;20028;-78
2021/10/04 11:54:49;;;;;;;0.40;0.28;;;14.70;75.60;;;;;;5073172;28;20020;-78
2021/10/04 11:57:19;;;;;;;0.63;0.50;;;14.80;75.60;;;;;;5070795;28;20186;-77
2021/10/04 11:59:52;;;;;;;1.73;0.50;;;15.00;75.70;;;;;;5071974;28;20032;-77
2021/10/04 12:02:25;;;;;;;1.02;0.45;;;15.10;75.60;;;;;;5073033;28;20028;-74
2021/10/04 12:04:51;;;;;;;0.68;0.40;;;15.20;75.00;;;;;;5071369;28;20024;-74
2021/10/04 12:07:20;;;;;;;0.45;0.40;;;15.30;75.00;;;;;;5071351;28;20036;-75
2021/10/04 12:09:55;;;;;;;1.35;0.38;;;15.40;75.00;;;;;;5071573;28;20032;-75
2021/10/04 12:12:20;;;;;;;0.40;0.40;;;15.40;74.90;;;;;;5071458;28;20024;-77
2021/10/04 12:14:46;;;;;;;0.30;0.30;;;15.40;75.10;;;;;;5071042;28;20388;-75
2021/10/04 12:17:12;;;;;;;1.40;0.60;;;15.40;75.40;;;;;;5071063;28;20024;-76
2021/10/04 12:19:38;;;;;;;1.92;1.05;;;15.50;75.50;;;;;;5070769;28;20043;-76
2021/10/04 12:22:03;;;;;;;1.20;0.80;;;15.50;75.50;;;;;;5070887;28;20102;-75
2021/10/04 12:24:32;;;;;;;3.28;0.70;;;15.50;75.30;;;;;;5054284;28;20035;-76
2021/10/04 12:27:08;;;;;;;1.98;0.50;;;15.50;75.20;;;;;;5054658;28;20063;-76
2021/10/04 12:29:47;;;;;;;1.73;0.98;;;15.50;75.60;;;;;;5071026;28;20538;-76
2021/10/04 12:32:35;;;;;;;1.02;0.88;;;15.60;75.50;;;;;;5071153;28;20028;-76
2021/10/04 12:35:09;;;;;;;1.67;1.20;;;15.50;76.00;;;;;;5070788;28;20032;-76
2021/10/04 12:37:56;;;;;;;1.13;0.90;;;15.50;76.10;;;;;;5071206;28;20111;-75
2021/10/04 12:40:40;;;;;;;1.55;0.70;;;15.50;76.30;;;;;;5070920;28;20043;-74
2021/10/04 12:43:23;;;;;;;1.15;0.40;;;15.30;77.20;;;;;;5070929;28;20392;-76
2021/10/04 12:46:15;;;;;;;0.88;0.70;;;15.10;77.50;;;;;;5072380;28;20128;-77
2021/10/04 12:48:43;;;;;;;1.73;1.08;;;14.90;78.60;;;;;;5071167;28;20495;-77
2021/10/04 12:51:25;;;;;;;1.92;0.90;;;14.90;78.60;;;;;;5070909;28;20021;-79
2021/10/04 12:53:54;;;;;;;2.45;1.08;;;14.90;79.10;;;;;;5071217;28;20021;-77